createdAt,value
2022-08-03T00:00:25.915Z,31.25
2022-08-03T00:02:52.736Z,27.00
2022-08-03T00:05:19.612Z,19.00
2022-08-03T00:07:46.259Z,17.75
2022-08-03T00:10:15.341Z,12.75
2022-08-03T00:12:42.077Z,14.00
2022-08-03T00:15:11.382Z,13.00
2022-08-03T00:17:52.333Z,8.00
2022-08-03T00:20:21.954Z,8.25
2022-08-03T00:22:49.297Z,7.00
2022-08-03T00:25:16.197Z,6.50
2022-08-03T00:27:42.868Z,5.00
2022-08-03T00:30:09.905Z,4.25
2022-08-03T00:32:36.596Z,3.75
2022-08-03T00:35:08.033Z,3.00
2022-08-03T00:37:41.247Z,4.25
2022-08-03T00:40:13.013Z,4.00
2022-08-03T00:42:51.851Z,6.00
2022-08-03T00:45:23.159Z,3.00
2022-08-03T00:47:50.508Z,3.00
2022-08-03T00:50:18.889Z,3.00
2022-08-03T00:52:46.607Z,2.00
2022-08-03T00:55:13.371Z,2.50
2022-08-03T00:57:40.350Z,2.75
2022-08-03T01:00:08.656Z,3.00
2022-08-03T01:02:36.223Z,4.50
2022-08-03T01:05:03.231Z,2.50
2022-08-03T01:07:46.563Z,2.75
2022-08-03T01:10:31.720Z,2.25
2022-08-03T01:13:07.226Z,3.75
2022-08-03T01:16:02.880Z,3.00
2022-08-03T01:18:41.566Z,6.75
2022-08-03T01:21:14.995Z,2.25
2022-08-03T01:24:07.109Z,3.00
2022-08-03T01:26:49.040Z,3.00
2022-08-03T01:29:18.769Z,5.00
2022-08-03T01:32:53.347Z,3.00
2022-08-03T01:34:52.327Z,3.25
2022-08-03T01:37:25.701Z,4.00
2022-08-03T01:39:56.550Z,3.00
2022-08-03T01:42:25.645Z,3.00
2022-08-03T01:44:53.160Z,2.25
2022-08-03T01:47:24.468Z,2.25
2022-08-03T01:49:52.799Z,2.50
2022-08-03T01:52:20.623Z,3.00
2022-08-03T01:54:51.164Z,3.00
2022-08-03T01:57:20.098Z,3.75
2022-08-03T01:59:50.601Z,3.50
2022-08-03T02:02:33.237Z,3.00
2022-08-03T02:05:03.476Z,3.25
2022-08-03T02:07:32.161Z,2.75
2022-08-03T02:10:01.234Z,4.25
2022-08-03T02:12:29.900Z,3.00
2022-08-03T02:14:59.904Z,3.25
2022-08-03T02:17:39.032Z,4.50
2022-08-03T02:20:09.275Z,2.25
2022-08-03T02:22:39.266Z,3.25
2022-08-03T02:25:08.619Z,3.00
2022-08-03T02:27:41.761Z,7.00
2022-08-03T02:30:12.122Z,3.75
2022-08-03T02:32:41.690Z,5.25
2022-08-03T02:35:13.364Z,3.00
2022-08-03T02:37:49.731Z,5.00
2022-08-03T02:40:19.017Z,3.00
2022-08-03T02:42:48.715Z,3.25
2022-08-03T02:45:18.408Z,3.00
2022-08-03T02:47:54.250Z,3.00
2022-08-03T02:50:23.301Z,3.75
2022-08-03T02:52:52.051Z,2.00
2022-08-03T02:55:20.948Z,3.00
2022-08-03T02:57:48.811Z,2.25
2022-08-03T03:00:27.668Z,3.00
2022-08-03T03:02:58.644Z,2.00
2022-08-03T03:05:53.174Z,3.00
2022-08-03T03:08:18.090Z,2.75
2022-08-03T03:10:46.725Z,2.00
2022-08-03T03:13:15.689Z,4.00
2022-08-03T03:15:45.284Z,3.00
2022-08-03T03:18:15.221Z,2.00
2022-08-03T03:20:46.001Z,4.50
2022-08-03T03:23:14.360Z,1.75
2022-08-03T03:25:41.955Z,4.00
2022-08-03T03:28:10.539Z,3.00
2022-08-03T03:30:37.525Z,2.25
2022-08-03T03:33:04.319Z,2.75
2022-08-03T03:35:31.685Z,3.25
2022-08-03T03:38:05.736Z,4.00
2022-08-03T03:40:32.481Z,6.50
2022-08-03T03:42:59.332Z,4.00
2022-08-03T03:45:26.883Z,3.00
2022-08-03T03:47:53.681Z,3.00
2022-08-03T03:50:22.424Z,2.50
2022-08-03T03:52:49.136Z,3.00
2022-08-03T03:55:17.957Z,3.00
2022-08-03T03:57:45.312Z,2.75
2022-08-03T04:00:13.941Z,5.00
2022-08-03T04:02:40.658Z,4.00
2022-08-03T04:05:26.828Z,4.75
2022-08-03T04:08:19.332Z,3.00
2022-08-03T04:11:30.096Z,2.50
2022-08-03T04:14:20.795Z,2.25
2022-08-03T04:16:51.898Z,3.00
2022-08-03T04:19:49.348Z,2.25
2022-08-03T04:22:20.182Z,3.00
2022-08-03T04:24:50.852Z,3.00
2022-08-03T04:27:25.345Z,3.00
2022-08-03T04:29:54.731Z,4.00
2022-08-03T04:32:25.349Z,4.00
2022-08-03T04:34:52.945Z,3.50
2022-08-03T04:37:27.394Z,2.50
2022-08-03T04:39:57.922Z,4.00
2022-08-03T04:42:25.887Z,3.75
2022-08-03T04:44:56.565Z,3.75
2022-08-03T04:47:27.620Z,4.75
2022-08-03T04:49:54.749Z,4.00
2022-08-03T04:52:21.437Z,4.00
2022-08-03T04:54:50.761Z,8.00
2022-08-03T04:57:22.750Z,4.75
2022-08-03T04:59:59.615Z,4.75
2022-08-03T05:02:29.207Z,4.50
2022-08-03T05:04:55.894Z,3.00
2022-08-03T05:07:25.078Z,3.00
2022-08-03T05:10:01.693Z,4.50
2022-08-03T05:12:32.714Z,3.50
2022-08-03T05:15:00.265Z,3.00
2022-08-03T05:17:27.104Z,4.00
2022-08-03T05:19:54.028Z,5.00
2022-08-03T05:22:21.392Z,4.25
2022-08-03T05:24:48.332Z,3.75
2022-08-03T05:27:19.443Z,3.00
2022-08-03T05:29:47.220Z,5.00
2022-08-03T05:32:13.915Z,4.00
2022-08-03T05:34:40.986Z,3.50
2022-08-03T05:37:07.820Z,3.00
2022-08-03T05:39:34.827Z,3.00
2022-08-03T05:42:02.030Z,3.75
2022-08-03T05:44:29.057Z,5.00
2022-08-03T05:46:57.888Z,3.25
2022-08-03T05:49:24.569Z,3.25
2022-08-03T05:52:00.424Z,4.50
2022-08-03T05:54:56.077Z,3.25
2022-08-03T05:57:25.031Z,3.75
2022-08-03T05:59:58.713Z,4.75
2022-08-03T06:02:27.416Z,5.25
2022-08-03T06:04:54.605Z,3.50
2022-08-03T06:07:21.509Z,3.00
2022-08-03T06:10:36.158Z,4.75
2022-08-03T06:12:36.338Z,5.00
2022-08-03T06:15:04.415Z,4.25
2022-08-03T06:17:37.336Z,4.00
2022-08-03T06:20:05.640Z,4.00
2022-08-03T06:22:32.284Z,3.50
2022-08-03T06:25:04.001Z,6.00
2022-08-03T06:27:37.276Z,4.75
2022-08-03T06:30:05.202Z,5.75
2022-08-03T06:32:31.897Z,4.50
2022-08-03T06:34:58.545Z,5.00
2022-08-03T06:37:27.110Z,5.00
2022-08-03T06:39:54.296Z,4.50
2022-08-03T06:42:21.148Z,6.00
2022-08-03T06:44:49.975Z,6.50
2022-08-03T06:47:16.730Z,4.50
2022-08-03T06:49:43.472Z,7.00
2022-08-03T06:52:10.231Z,5.00
2022-08-03T06:54:37.004Z,5.50
2022-08-03T06:57:04.182Z,6.00
2022-08-03T07:00:10.829Z,5.75
2022-08-03T07:02:19.865Z,9.50
2022-08-03T07:04:48.408Z,5.00
2022-08-03T07:07:15.103Z,6.50
2022-08-03T07:09:42.925Z,4.00
2022-08-03T07:12:24.291Z,5.00
2022-08-03T07:14:50.955Z,5.50
2022-08-03T07:17:18.522Z,5.25
2022-08-03T07:19:45.201Z,7.00
2022-08-03T07:22:11.977Z,5.50
2022-08-03T07:24:38.705Z,9.00
2022-08-03T07:27:05.412Z,7.50
2022-08-03T07:29:34.689Z,7.00
2022-08-03T07:32:01.974Z,6.50
2022-08-03T07:34:28.992Z,8.50
2022-08-03T07:36:57.577Z,7.00
2022-08-03T07:39:24.420Z,7.75
2022-08-03T07:41:51.862Z,7.25
2022-08-03T07:44:19.518Z,9.75
2022-08-03T07:46:46.715Z,7.00
2022-08-03T07:49:14.003Z,7.00
2022-08-03T07:51:43.343Z,8.75
2022-08-03T07:54:13.045Z,7.00
2022-08-03T07:56:39.929Z,6.00
2022-08-03T07:59:06.592Z,8.00
2022-08-03T08:01:36.668Z,6.75
2022-08-03T08:04:03.536Z,10.50
2022-08-03T08:06:32.733Z,7.00
2022-08-03T08:09:01.795Z,7.00
2022-08-03T08:11:28.507Z,7.75
2022-08-03T08:13:55.213Z,7.50
2022-08-03T08:16:21.886Z,6.25
2022-08-03T08:18:48.584Z,8.50
2022-08-03T08:21:15.209Z,11.50
2022-08-03T08:23:44.363Z,7.75
2022-08-03T08:26:14.771Z,7.25
2022-08-03T08:28:41.485Z,9.50
2022-08-03T08:31:08.169Z,7.50
2022-08-03T08:34:03.247Z,9.50
2022-08-03T08:36:24.103Z,11.75
2022-08-03T08:38:50.825Z,8.00
2022-08-03T08:41:17.669Z,7.50
2022-08-03T08:43:44.315Z,9.25
2022-08-03T08:46:13.163Z,11.00
2022-08-03T08:48:51.509Z,6.25
2022-08-03T08:51:20.881Z,7.75
2022-08-03T08:53:53.844Z,9.25
2022-08-03T08:56:25.541Z,8.00
2022-08-03T08:58:58.071Z,10.50
2022-08-03T09:01:24.802Z,8.25
2022-08-03T09:03:53.493Z,9.75
2022-08-03T09:06:21.433Z,6.75
2022-08-03T09:08:48.415Z,8.50
2022-08-03T09:11:15.085Z,9.50
2022-08-03T09:13:42.153Z,10.25
2022-08-03T09:16:21.170Z,8.00
2022-08-03T09:18:50.532Z,10.00
2022-08-03T09:21:32.206Z,8.75
2022-08-03T09:24:03.824Z,9.25
2022-08-03T09:26:32.098Z,7.25
2022-08-03T09:29:11.287Z,8.00
2022-08-03T09:31:43.549Z,9.25
2022-08-03T09:34:15.878Z,9.25
2022-08-03T09:36:44.703Z,6.25
2022-08-03T09:39:41.600Z,10.50
2022-08-03T09:42:14.629Z,8.75
2022-08-03T09:44:46.744Z,11.00
2022-08-03T09:47:16.312Z,7.25
2022-08-03T09:50:02.079Z,9.00
2022-08-03T09:52:52.464Z,9.00
2022-08-03T09:56:35.118Z,9.25
2022-08-03T09:58:10.593Z,7.75
2022-08-03T10:01:24.035Z,6.25
2022-08-03T10:04:04.173Z,8.50
2022-08-03T10:06:31.733Z,6.75
2022-08-03T10:09:10.745Z,7.00
2022-08-03T10:11:42.010Z,4.50
2022-08-03T10:14:11.647Z,6.25
2022-08-03T10:16:40.141Z,6.25
2022-08-03T10:19:09.817Z,7.00
2022-08-03T10:21:39.070Z,6.75
2022-08-03T10:24:08.517Z,6.75
2022-08-03T10:26:39.069Z,6.25
2022-08-03T10:29:24.900Z,7.75
2022-08-03T10:31:57.527Z,7.00
2022-08-03T10:34:29.136Z,5.75
2022-08-03T10:37:00.270Z,7.00
2022-08-03T10:39:30.003Z,5.75
2022-08-03T10:42:02.477Z,7.25
2022-08-03T10:44:36.670Z,9.50
2022-08-03T10:47:04.870Z,8.25
2022-08-03T10:49:34.227Z,7.50
2022-08-03T10:52:08.407Z,6.00
2022-08-03T10:55:07.782Z,7.00
2022-08-03T10:57:58.305Z,9.75
2022-08-03T11:00:27.799Z,7.50
2022-08-03T11:03:16.568Z,5.00
2022-08-03T11:05:49.172Z,7.25
2022-08-03T11:08:26.395Z,9.25
2022-08-03T11:10:58.810Z,8.00
2022-08-03T11:13:28.397Z,7.50
2022-08-03T11:16:00.117Z,11.00
2022-08-03T11:18:30.646Z,9.25
2022-08-03T11:20:59.408Z,8.00
2022-08-03T11:24:03.572Z,5.50
2022-08-03T11:26:33.998Z,8.50
2022-08-03T11:29:29.538Z,6.50
2022-08-03T11:31:56.374Z,8.50
2022-08-03T11:34:24.781Z,8.00
2022-08-03T11:37:20.622Z,5.00
2022-08-03T11:39:49.256Z,6.75
2022-08-03T11:42:25.626Z,7.50
2022-08-03T11:44:54.533Z,8.75
2022-08-03T11:47:22.725Z,7.25
2022-08-03T11:49:51.017Z,9.00
2022-08-03T11:52:18.513Z,5.75
2022-08-03T11:54:45.385Z,6.75
2022-08-03T11:57:12.288Z,6.25
2022-08-03T11:59:39.158Z,7.50
2022-08-03T12:02:14.808Z,6.50
2022-08-03T12:04:58.421Z,7.75
2022-08-03T12:08:04.422Z,6.00
2022-08-03T12:10:15.242Z,6.00
2022-08-03T12:12:46.305Z,7.25
2022-08-03T12:15:13.691Z,8.75
2022-08-03T12:17:41.836Z,6.00
2022-08-03T12:20:10.545Z,8.75
2022-08-03T12:22:39.813Z,5.50
2022-08-03T12:25:08.947Z,6.50
2022-08-03T12:27:36.405Z,6.00
2022-08-03T12:30:04.933Z,7.00
2022-08-03T12:32:31.770Z,7.00
2022-08-03T12:35:01.509Z,6.00
2022-08-03T12:37:28.869Z,6.00
2022-08-03T12:40:09.515Z,8.50
2022-08-03T12:42:38.444Z,3.75
2022-08-03T12:45:34.725Z,6.00
2022-08-03T12:48:02.695Z,8.25
2022-08-03T12:50:35.159Z,7.25
2022-08-03T12:53:05.321Z,6.50
2022-08-03T12:55:57.645Z,4.25
2022-08-03T12:58:36.724Z,7.25
2022-08-03T13:01:09.277Z,7.75
2022-08-03T13:03:50.520Z,9.00
2022-08-03T13:06:26.594Z,8.50
2022-08-03T13:09:10.324Z,6.75
2022-08-03T13:11:57.913Z,9.25
2022-08-03T13:14:23.984Z,6.00
2022-08-03T13:16:51.211Z,7.25
2022-08-03T13:19:17.928Z,6.25
2022-08-03T13:22:01.716Z,4.25
2022-08-03T13:24:32.765Z,7.25
2022-08-03T13:27:00.534Z,7.00
2022-08-03T13:29:27.199Z,8.50
2022-08-03T13:31:54.026Z,8.50
2022-08-03T13:34:23.487Z,9.50
2022-08-03T13:39:57.630Z,10.00
2022-08-03T13:42:26.245Z,9.25
2022-08-03T13:44:52.945Z,10.00
2022-08-03T13:47:20.439Z,10.00
2022-08-03T13:50:00.118Z,10.50
2022-08-03T13:52:35.094Z,9.25
2022-08-03T13:55:03.402Z,9.00
2022-08-03T13:58:03.970Z,8.00
2022-08-03T14:00:27.966Z,8.25
2022-08-03T14:03:03.853Z,9.00
2022-08-03T14:05:32.850Z,10.00
2022-08-03T14:08:04.842Z,8.75
2022-08-03T14:10:39.688Z,11.25
2022-08-03T14:13:06.828Z,8.00
2022-08-03T14:15:37.472Z,7.00
2022-08-03T14:18:05.857Z,6.25
2022-08-03T14:20:38.008Z,7.75
2022-08-03T14:23:15.930Z,7.25
2022-08-03T14:25:51.811Z,7.25
2022-08-03T14:28:25.177Z,7.50
2022-08-03T14:30:52.657Z,9.00
2022-08-03T14:33:19.764Z,7.00
2022-08-03T14:35:46.688Z,7.75
2022-08-03T14:38:13.436Z,8.50
2022-08-03T14:40:40.144Z,6.50
2022-08-03T14:43:06.924Z,6.50
2022-08-03T14:45:34.430Z,7.25
2022-08-03T14:50:33.567Z,7.50
2022-08-03T14:50:51.696Z,8.00
2022-08-03T14:53:19.239Z,6.25
2022-08-03T14:55:49.674Z,8.00
2022-08-03T14:58:21.362Z,6.50
2022-08-03T15:00:49.465Z,7.50
2022-08-03T15:03:17.037Z,7.75
2022-08-03T15:05:44.507Z,8.50
2022-08-03T15:08:11.361Z,8.50
2022-08-03T15:10:43.872Z,9.00
2022-08-03T15:13:12.174Z,8.25
2022-08-03T15:15:38.892Z,7.25
2022-08-03T15:18:05.622Z,7.50
2022-08-03T15:20:43.671Z,7.50
2022-08-03T15:23:11.013Z,7.25
2022-08-03T15:26:31.647Z,8.25
2022-08-03T15:28:24.389Z,8.00
2022-08-03T15:30:53.968Z,6.75
2022-08-03T15:33:21.082Z,9.00
2022-08-03T15:35:48.112Z,9.50
2022-08-03T15:38:15.174Z,6.50
2022-08-03T15:40:42.191Z,6.50
2022-08-03T15:43:08.812Z,5.75
2022-08-03T15:45:36.575Z,6.50
2022-08-03T15:48:07.210Z,7.25
2022-08-03T15:50:34.090Z,7.50
2022-08-03T15:53:00.717Z,10.25
2022-08-03T15:55:27.849Z,8.50
2022-08-03T15:59:04.723Z,9.00
2022-08-03T16:00:42.908Z,7.75
2022-08-03T16:03:10.064Z,8.75
2022-08-03T16:05:37.047Z,10.75
2022-08-03T16:08:05.612Z,8.50
2022-08-03T16:10:34.656Z,6.50
2022-08-03T16:13:01.394Z,9.00
2022-08-03T16:15:28.132Z,7.50
2022-08-03T16:17:54.987Z,7.75
2022-08-03T16:20:33.788Z,11.00
2022-08-03T16:23:11.088Z,10.25
2022-08-03T16:25:42.699Z,9.75
2022-08-03T16:28:13.897Z,9.00
2022-08-03T16:30:43.153Z,9.75
2022-08-03T16:33:11.437Z,9.75
2022-08-03T16:35:43.844Z,8.25
2022-08-03T16:38:13.090Z,7.75
2022-08-03T16:40:42.093Z,7.25
2022-08-03T16:43:18.489Z,8.25
2022-08-03T16:45:46.903Z,8.25
2022-08-03T16:48:15.195Z,9.50
2022-08-03T16:50:42.763Z,9.50
2022-08-03T16:53:15.511Z,9.25
2022-08-03T16:55:52.305Z,7.75
2022-08-03T16:58:41.367Z,8.50
2022-08-03T17:01:21.719Z,9.75
2022-08-03T17:04:01.991Z,10.50
2022-08-03T17:06:36.035Z,8.25
2022-08-03T17:09:09.875Z,9.25
2022-08-03T17:11:47.195Z,10.25
2022-08-03T17:14:21.921Z,11.25
2022-08-03T17:16:52.235Z,9.00
2022-08-03T17:19:23.159Z,11.75
2022-08-03T17:22:08.915Z,8.75
2022-08-03T17:24:41.551Z,7.75
2022-08-03T17:27:18.592Z,9.00
2022-08-03T17:30:02.610Z,8.00
2022-08-03T17:32:33.474Z,9.00
2022-08-03T17:35:00.950Z,8.25
2022-08-03T17:37:58.169Z,6.00
2022-08-03T17:40:15.900Z,10.25
2022-08-03T17:42:44.894Z,10.75
2022-08-03T17:45:17.319Z,15.00
2022-08-03T17:47:45.636Z,9.25
2022-08-03T17:50:29.002Z,9.75
2022-08-03T17:53:07.415Z,11.00
2022-08-03T17:55:55.894Z,9.00
2022-08-03T17:58:44.135Z,8.50
2022-08-03T18:02:00.101Z,11.75
2022-08-03T18:04:33.717Z,9.50
2022-08-03T18:07:11.745Z,11.75
2022-08-03T18:10:06.523Z,11.50
2022-08-03T18:12:40.208Z,10.00
2022-08-03T18:15:20.883Z,9.00
2022-08-03T18:17:58.152Z,12.00
2022-08-03T18:20:32.808Z,13.25
2022-08-03T18:23:06.085Z,11.00
2022-08-03T18:28:23.333Z,12.75
2022-08-03T18:30:54.206Z,10.00
2022-08-03T18:34:19.338Z,8.75
2022-08-03T18:36:17.388Z,10.25
2022-08-03T18:38:49.135Z,9.25
2022-08-03T18:41:22.179Z,8.75
2022-08-03T18:44:09.099Z,10.00
2022-08-03T18:47:18.604Z,11.00
2022-08-03T18:49:50.210Z,9.50
2022-08-03T18:52:21.903Z,10.75
2022-08-03T18:55:19.989Z,12.00
2022-08-03T18:57:48.256Z,10.75
2022-08-03T19:00:17.389Z,9.50
2022-08-03T19:03:05.922Z,9.00
2022-08-03T19:05:56.559Z,8.75
2022-08-03T19:09:03.293Z,7.50
2022-08-03T19:12:13.105Z,10.50
2022-08-03T19:14:41.719Z,9.50
2022-08-03T19:17:11.061Z,9.75
2022-08-03T19:19:43.907Z,10.25
2022-08-03T19:22:19.648Z,9.25
2022-08-03T19:24:47.860Z,7.00
2022-08-03T19:27:15.897Z,8.50
2022-08-03T19:29:58.504Z,8.00
2022-08-03T19:32:31.399Z,9.75
2022-08-03T19:35:00.003Z,7.50
2022-08-03T19:37:38.422Z,6.00
2022-08-03T19:40:12.238Z,6.75
2022-08-03T19:42:44.553Z,6.50
2022-08-03T19:45:15.615Z,5.50
2022-08-03T19:47:52.915Z,6.00
2022-08-03T19:50:20.749Z,7.00
2022-08-03T19:52:49.738Z,6.25
2022-08-03T19:55:17.985Z,6.50
2022-08-03T19:57:49.163Z,6.50
2022-08-03T20:00:19.686Z,7.00
2022-08-03T20:02:46.859Z,5.25
2022-08-03T20:05:15.244Z,4.00
2022-08-03T20:07:47.587Z,4.75
2022-08-03T20:10:16.061Z,6.50
2022-08-03T20:12:44.428Z,6.00
2022-08-03T20:15:11.440Z,5.00
2022-08-03T20:17:57.160Z,5.25
2022-08-03T20:20:32.764Z,6.00
2022-08-03T20:23:06.961Z,5.00
2022-08-03T20:25:39.587Z,5.50
2022-08-03T20:28:50.048Z,6.00
2022-08-03T20:31:18.918Z,6.00
2022-08-03T20:33:49.032Z,9.25
2022-08-03T20:36:18.029Z,5.75
2022-08-03T20:38:47.726Z,6.50
2022-08-03T20:41:16.347Z,5.25
2022-08-03T20:43:43.363Z,5.50
2022-08-03T20:46:32.853Z,6.25
2022-08-03T20:48:58.912Z,5.00
2022-08-03T20:51:50.242Z,4.75
2022-08-03T20:54:29.249Z,7.75
2022-08-03T20:57:03.716Z,5.00
2022-08-03T20:59:47.175Z,4.50
2022-08-03T21:02:19.234Z,2.75
2022-08-03T21:04:55.257Z,5.50
2022-08-03T21:07:24.134Z,5.00
2022-08-03T21:09:53.028Z,5.75
2022-08-03T21:12:35.165Z,7.50
2022-08-03T21:12:58.030Z,8.75
2022-08-03T21:15:04.333Z,4.00
2022-08-03T21:17:40.998Z,2.50
2022-08-03T21:20:10.435Z,6.00
2022-08-03T21:22:38.728Z,6.00
2022-08-03T21:25:09.386Z,4.50
2022-08-03T21:27:37.044Z,3.75
2022-08-03T21:30:10.014Z,5.25
2022-08-03T21:32:40.367Z,5.25
2022-08-03T21:35:10.801Z,5.00
2022-08-03T21:37:39.532Z,4.00
2022-08-03T21:40:08.349Z,6.00
2022-08-03T21:42:35.333Z,5.25
2022-08-03T21:45:07.273Z,4.50
2022-08-03T21:47:37.666Z,5.00
2022-08-03T21:50:12.701Z,6.75
2022-08-03T21:52:47.708Z,4.50
2022-08-03T21:55:20.899Z,6.75
2022-08-03T21:57:52.448Z,6.75
2022-08-03T22:00:21.133Z,6.25
2022-08-03T22:03:15.316Z,4.00
2022-08-03T22:05:44.892Z,6.50
2022-08-03T22:08:15.296Z,4.75
2022-08-03T22:10:46.593Z,5.50
2022-08-03T22:13:15.129Z,7.75
2022-08-03T22:15:42.195Z,5.00
2022-08-03T22:18:08.921Z,6.00
2022-08-03T22:20:36.095Z,3.50
2022-08-03T22:23:05.349Z,5.75
2022-08-03T22:25:35.053Z,8.25
2022-08-03T22:28:08.810Z,6.25
2022-08-03T22:30:35.971Z,6.00
2022-08-03T22:33:04.775Z,6.00
2022-08-03T22:35:47.173Z,5.50
2022-08-03T22:38:15.864Z,6.50
2022-08-03T22:40:43.024Z,6.00
2022-08-03T22:43:09.776Z,8.00
2022-08-03T22:46:09.615Z,8.00
2022-08-03T22:48:23.889Z,6.00
2022-08-03T22:50:50.713Z,6.75
2022-08-03T22:53:20.223Z,6.00
2022-08-03T22:55:51.105Z,7.00
2022-08-03T22:58:20.843Z,5.00
2022-08-03T23:00:57.451Z,4.50
2022-08-03T23:03:59.737Z,5.50
2022-08-03T23:06:15.137Z,6.25
2022-08-03T23:08:46.253Z,8.00
2022-08-03T23:11:15.775Z,5.25
2022-08-03T23:13:45.651Z,5.00
2022-08-03T23:16:13.398Z,6.00
2022-08-03T23:18:42.478Z,5.50
2022-08-03T23:21:11.528Z,6.00
2022-08-03T23:23:44.195Z,6.00
2022-08-03T23:26:12.406Z,7.00
2022-08-03T23:28:42.212Z,6.00
2022-08-03T23:31:09.665Z,5.50
2022-08-03T23:33:38.916Z,4.50
2022-08-03T23:36:28.468Z,4.50
2022-08-03T23:38:54.362Z,7.00
2022-08-03T23:41:22.143Z,5.25
2022-08-03T23:43:51.622Z,6.00
2022-08-03T23:46:22.220Z,7.00
2022-08-03T23:48:49.566Z,5.75
2022-08-03T23:51:32.748Z,0.00
2022-08-03T23:54:09.922Z,7.50
2022-08-03T23:56:52.286Z,6.00
2022-08-03T23:59:32.213Z,6.25
